Time;durP1;ratioP1;P1;durP2;ratioP2;P2;SDS_P1;SDS_P2;PMS_P1;PMS_P2;Temp;Humidity;BMP_temperature;BMP_pressure;BME280_temperature;BME280_humidity;BME280_pressure;Samples;Min_cycle;Max_cycle;Signal;HPM_P1;HPM_P2
2023/07/19 00:00:47;;;;;;;9.77;3.17;;;18.30;99.90;;;;;;4996360;28;20119;-85
2023/07/19 00:03:13;;;;;;;7.07;2.90;;;18.30;99.90;;;;;;4996432;28;20129;-85
2023/07/19 00:05:39;;;;;;;9.35;3.30;;;18.20;99.90;;;;;;4996013;28;20048;-85
2023/07/19 00:08:04;;;;;;;9.30;3.25;;;18.20;99.90;;;;;;4996041;28;20077;-85
2023/07/19 00:10:30;;;;;;;8.23;3.45;;;18.20;99.90;;;;;;4995720;28;20473;-85
2023/07/19 00:12:56;;;;;;;7.82;2.90;;;18.20;99.90;;;;;;4995927;28;20201;-84
2023/07/19 00:15:22;;;;;;;7.30;3.30;;;18.20;99.90;;;;;;4995428;28;20495;-84
2023/07/19 00:17:48;;;;;;;11.10;3.55;;;18.20;99.90;;;;;;4979122;28;20050;-84
2023/07/19 00:20:16;;;;;;;7.47;3.28;;;18.10;99.90;;;;;;4995870;28;20044;-85
2023/07/19 00:22:42;;;;;;;8.40;3.70;;;18.10;99.90;;;;;;4996132;28;20140;-85
2023/07/19 00:25:08;;;;;;;8.35;3.55;;;18.10;99.90;;;;;;4979840;28;20105;-85
2023/07/19 00:27:34;;;;;;;8.65;3.75;;;18.10;99.90;;;;;;4978684;28;20042;-85
2023/07/19 00:29:59;;;;;;;8.55;3.67;;;18.10;99.90;;;;;;4979526;28;20045;-85
2023/07/19 00:32:25;;;;;;;8.43;3.90;;;18.10;99.90;;;;;;4979544;28;20037;-84
2023/07/19 00:34:50;;;;;;;10.02;3.90;;;18.00;99.90;;;;;;4995969;28;20034;-84
2023/07/19 00:37:16;;;;;;;8.25;3.60;;;17.90;99.90;;;;;;4995640;28;20053;-85
2023/07/19 00:39:42;;;;;;;9.00;3.90;;;17.90;99.90;;;;;;4996020;28;20073;-84
2023/07/19 00:42:07;;;;;;;10.05;4.32;;;17.90;99.90;;;;;;4979608;28;20056;-85
2023/07/19 00:44:33;;;;;;;8.68;3.90;;;17.90;99.90;;;;;;5013590;28;20133;-84
2023/07/19 00:47:01;;;;;;;8.65;2.90;;;17.90;99.90;;;;;;4995237;28;20045;-84
2023/07/19 00:49:27;;;;;;;9.30;3.92;;;17.80;99.90;;;;;;4994249;28;20038;-84
2023/07/19 00:51:53;;;;;;;7.45;3.10;;;17.80;99.90;;;;;;4994601;28;20041;-84
2023/07/19 00:54:20;;;;;;;8.75;3.72;;;17.90;99.90;;;;;;4994954;28;20038;-84
2023/07/19 00:56:46;;;;;;;9.30;3.78;;;17.90;99.90;;;;;;4978367;28;20134;-84
2023/07/19 00:59:12;;;;;;;9.23;4.10;;;17.90;99.90;;;;;;4995688;28;20133;-84
2023/07/19 01:01:38;;;;;;;9.43;3.97;;;17.90;99.90;;;;;;4995605;28;20042;-84
2023/07/19 01:04:04;;;;;;;8.13;3.90;;;17.90;99.90;;;;;;4995750;28;20129;-85
2023/07/19 01:06:29;;;;;;;10.68;4.00;;;17.90;99.90;;;;;;4978788;28;20041;-85
2023/07/19 01:08:55;;;;;;;9.60;4.30;;;17.90;99.90;;;;;;4994794;28;20120;-84
2023/07/19 01:11:21;;;;;;;9.68;4.20;;;17.90;99.90;;;;;;4994125;28;20034;-85
2023/07/19 01:13:54;;;;;;;9.98;4.15;;;17.80;99.90;;;;;;4994391;28;20034;-85
2023/07/19 01:16:20;;;;;;;10.63;4.25;;;17.90;99.90;;;;;;4978055;28;20459;-85
2023/07/19 01:18:46;;;;;;;8.32;4.22;;;17.80;99.90;;;;;;4978056;28;20034;-84
2023/07/19 01:21:12;;;;;;;9.75;4.78;;;17.80;99.90;;;;;;4995244;28;20117;-85
2023/07/19 01:23:38;;;;;;;11.60;4.30;;;17.80;99.90;;;;;;4994955;28;20125;-85
2023/07/19 01:26:03;;;;;;;9.32;3.90;;;17.80;99.90;;;;;;4994041;28;20049;-84
2023/07/19 01:28:29;;;;;;;10.23;4.38;;;17.90;99.90;;;;;;4994723;28;20046;-85
2023/07/19 01:30:55;;;;;;;9.95;4.35;;;17.80;99.90;;;;;;4994824;28;20084;-85
2023/07/19 01:33:21;;;;;;;9.93;3.97;;;17.80;99.90;;;;;;4978536;28;20498;-85
2023/07/19 01:35:46;;;;;;;9.98;4.53;;;17.80;99.90;;;;;;4994737;28;20387;-84
2023/07/19 01:38:12;;;;;;;9.65;4.25;;;17.80;99.90;;;;;;4994428;28;20033;-84
2023/07/19 01:40:37;;;;;;;10.82;4.50;;;17.80;99.90;;;;;;4994959;28;20099;-84
2023/07/19 01:43:03;;;;;;;10.07;4.28;;;17.80;99.90;;;;;;4994471;28;20048;-84
2023/07/19 01:45:29;;;;;;;8.55;3.17;;;17.70;99.90;;;;;;4994289;28;20502;-84
2023/07/19 01:47:54;;;;;;;9.30;4.65;;;17.70;99.90;;;;;;4994593;28;20050;-84
2023/07/19 01:50:20;;;;;;;9.65;4.70;;;17.60;99.90;;;;;;4994341;28;20077;-84
2023/07/19 01:52:45;;;;;;;10.27;4.22;;;17.60;99.90;;;;;;4994483;28;20524;-84
2023/07/19 01:55:11;;;;;;;8.52;3.97;;;17.70;99.90;;;;;;4994956;28;20038;-85
2023/07/19 01:57:37;;;;;;;9.75;4.30;;;17.60;99.90;;;;;;4994017;28;20537;-84
2023/07/19 02:00:04;;;;;;;8.27;4.10;;;17.60;99.90;;;;;;4994440;28;20042;-85
2023/07/19 02:02:29;;;;;;;8.68;4.35;;;17.60;99.90;;;;;;4994381;28;20049;-85
2023/07/19 02:04:55;;;;;;;8.88;4.15;;;17.60;99.90;;;;;;5010496;28;20041;-85
2023/07/19 02:07:20;;;;;;;7.68;4.13;;;17.50;99.90;;;;;;4993326;28;20037;-85
2023/07/19 02:09:46;;;;;;;8.48;4.32;;;17.50;99.90;;;;;;4992847;28;20074;-85
2023/07/19 02:12:12;;;;;;;8.23;3.03;;;17.50;99.90;;;;;;4993870;28;20034;-85
2023/07/19 02:14:38;;;;;;;9.25;3.88;;;17.50;99.90;;;;;;5011257;28;20073;-85
2023/07/19 02:17:03;;;;;;;9.00;4.07;;;17.50;99.90;;;;;;4994022;28;20054;-85
2023/07/19 02:19:29;;;;;;;6.97;3.47;;;17.50;99.90;;;;;;4993860;28;20045;-85
2023/07/19 02:21:55;;;;;;;7.90;3.70;;;17.40;99.90;;;;;;4977949;28;20045;-84
2023/07/19 02:24:20;;;;;;;11.65;4.07;;;17.40;99.90;;;;;;4993826;28;20041;-85
2023/07/19 02:26:46;;;;;;;8.45;3.00;;;17.40;99.90;;;;;;4993296;28;20406;-85
2023/07/19 02:29:12;;;;;;;9.23;4.63;;;17.30;99.90;;;;;;4977172;28;20498;-85
2023/07/19 02:31:37;;;;;;;9.32;4.45;;;17.30;99.90;;;;;;4993551;28;20052;-85
2023/07/19 02:34:06;;;;;;;9.27;4.65;;;17.30;99.90;;;;;;4994300;28;20046;-85
2023/07/19 02:36:31;;;;;;;9.75;4.45;;;17.30;99.90;;;;;;4993665;28;20046;-85
2023/07/19 02:38:57;;;;;;;10.02;4.80;;;17.30;99.90;;;;;;4977572;28;20067;-85
2023/07/19 02:41:22;;;;;;;9.32;5.30;;;17.30;99.90;;;;;;4993841;28;20041;-85
2023/07/19 02:43:48;;;;;;;10.40;5.05;;;17.30;99.90;;;;;;4977302;28;20128;-85
2023/07/19 02:46:13;;;;;;;7.85;4.15;;;17.30;99.90;;;;;;4993284;28;20414;-84
2023/07/19 02:48:39;;;;;;;10.88;5.53;;;17.20;99.90;;;;;;4993664;28;20038;-85
2023/07/19 02:51:05;;;;;;;10.77;5.40;;;17.20;99.90;;;;;;4993247;28;20046;-85
2023/07/19 02:53:30;;;;;;;9.57;5.55;;;17.30;99.90;;;;;;4993687;28;20048;-85
2023/07/19 02:55:56;;;;;;;10.32;5.35;;;17.30;99.90;;;;;;4997213;28;20041;-85
2023/07/19 02:58:22;;;;;;;11.13;5.80;;;17.30;99.90;;;;;;4997711;28;20530;-85
2023/07/19 03:00:48;;;;;;;11.85;4.47;;;17.30;99.90;;;;;;4997620;28;20053;-85
2023/07/19 03:03:13;;;;;;;10.25;5.43;;;17.20;99.90;;;;;;4997744;28;20050;-85
2023/07/19 03:05:44;;;;;;;9.77;5.60;;;17.20;99.90;;;;;;4997374;28;20128;-85
2023/07/19 03:08:11;;;;;;;11.40;4.82;;;17.20;99.90;;;;;;4997286;28;20042;-85
2023/07/19 03:10:37;;;;;;;10.45;5.82;;;17.20;99.90;;;;;;4996272;28;20046;-85
2023/07/19 03:13:03;;;;;;;9.90;6.07;;;17.20;99.90;;;;;;4980202;28;20037;-85
2023/07/19 03:15:32;;;;;;;13.27;5.55;;;17.10;99.90;;;;;;4996020;28;20575;-84
2023/07/19 03:18:02;;;;;;;8.98;5.38;;;17.20;99.90;;;;;;4996358;28;20061;-84
2023/07/19 03:20:31;;;;;;;10.15;5.22;;;17.10;99.90;;;;;;4996532;28;20045;-84
2023/07/19 03:22:58;;;;;;;9.00;5.60;;;17.10;99.90;;;;;;4996657;28;20121;-85
2023/07/19 03:25:24;;;;;;;9.48;6.32;;;17.10;99.90;;;;;;4995711;28;20038;-85
2023/07/19 03:27:50;;;;;;;11.23;5.88;;;17.10;99.90;;;;;;4997266;28;20089;-85
2023/07/19 03:30:16;;;;;;;11.55;6.50;;;17.00;99.90;;;;;;4996725;28;20033;-84
2023/07/19 03:32:41;;;;;;;8.77;4.85;;;17.00;99.90;;;;;;4996813;28;20071;-85
2023/07/19 03:35:07;;;;;;;9.98;6.82;;;16.90;99.90;;;;;;4996997;28;20038;-84
2023/07/19 03:37:36;;;;;;;11.63;6.88;;;16.90;99.90;;;;;;4980368;28;20045;-85
2023/07/19 03:40:04;;;;;;;9.30;4.90;;;16.90;99.90;;;;;;4980632;28;20041;-84
2023/07/19 03:42:31;;;;;;;10.63;6.88;;;16.90;99.90;;;;;;4996957;28;20126;-85
2023/07/19 03:44:56;;;;;;;10.05;5.57;;;16.80;99.90;;;;;;4997070;28;20049;-85
2023/07/19 03:47:22;;;;;;;11.77;7.45;;;16.80;99.90;;;;;;4996629;28;20038;-84
2023/07/19 03:49:48;;;;;;;11.55;8.15;;;16.80;99.90;;;;;;4996492;28;20546;-84
2023/07/19 03:52:13;;;;;;;10.75;7.72;;;16.70;99.90;;;;;;4996844;28;20069;-85
2023/07/19 03:54:39;;;;;;;11.23;8.32;;;16.70;99.90;;;;;;4996633;28;20034;-85
2023/07/19 03:57:04;;;;;;;12.68;8.75;;;16.70;99.90;;;;;;4996238;28;20045;-85
2023/07/19 03:59:30;;;;;;;12.23;5.95;;;16.80;99.90;;;;;;4996288;28;20038;-85
2023/07/19 04:01:56;;;;;;;12.95;9.00;;;16.70;99.90;;;;;;4996668;28;20103;-85
2023/07/19 04:04:21;;;;;;;14.60;9.65;;;16.70;99.90;;;;;;4996511;28;20125;-85
2023/07/19 04:06:47;;;;;;;13.55;9.55;;;16.60;99.90;;;;;;4979422;28;20121;-85
2023/07/19 04:09:12;;;;;;;13.32;9.75;;;16.60;99.90;;;;;;4996394;28;20134;-84
2023/07/19 04:11:38;;;;;;;9.95;6.82;;;16.60;99.90;;;;;;4995588;28;20042;-84
2023/07/19 04:14:04;;;;;;;15.23;10.13;;;16.60;99.90;;;;;;4996697;28;20041;-85
2023/07/19 04:16:29;;;;;;;13.88;10.32;;;16.60;99.90;;;;;;4995395;28;20033;-85
2023/07/19 04:18:55;;;;;;;13.52;9.68;;;16.70;99.90;;;;;;4980103;28;20582;-85
2023/07/19 04:21:21;;;;;;;12.15;7.53;;;16.70;99.90;;;;;;4995858;28;20045;-85
2023/07/19 04:23:46;;;;;;;17.63;10.02;;;16.70;99.90;;;;;;4996096;28;20099;-85
2023/07/19 04:26:12;;;;;;;12.82;9.20;;;16.70;99.90;;;;;;5011645;28;20045;-84
2023/07/19 04:28:37;;;;;;;10.70;8.88;;;16.70;99.90;;;;;;4979570;28;20125;-85
2023/07/19 04:31:03;;;;;;;15.95;10.25;;;16.70;99.90;;;;;;4995520;28;20419;-85
2023/07/19 04:33:30;;;;;;;14.10;11.02;;;16.70;99.90;;;;;;5011487;28;20038;-84
2023/07/19 04:35:56;;;;;;;12.05;6.88;;;16.70;99.90;;;;;;4995047;28;20204;-84
2023/07/19 04:38:21;;;;;;;13.50;8.05;;;16.70;99.90;;;;;;4979697;28;20162;-84
2023/07/19 04:40:47;;;;;;;14.10;10.52;;;16.70;99.90;;;;;;4979834;28;20045;-84
2023/07/19 04:43:12;;;;;;;14.18;10.52;;;16.70;99.90;;;;;;4980018;28;20147;-84
2023/07/19 04:45:38;;;;;;;14.25;11.63;;;16.70;99.90;;;;;;5011938;28;20045;-85
2023/07/19 04:48:04;;;;;;;12.50;6.82;;;16.70;99.90;;;;;;4995421;28;20525;-84
2023/07/19 04:50:30;;;;;;;12.43;10.13;;;16.60;99.90;;;;;;4995558;28;20044;-84
2023/07/19 04:52:55;;;;;;;13.98;10.00;;;16.60;99.90;;;;;;4995295;28;20127;-84
2023/07/19 04:55:21;;;;;;;12.60;7.15;;;16.70;99.90;;;;;;5011691;28;20034;-85
2023/07/19 04:57:47;;;;;;;15.10;11.02;;;16.60;99.90;;;;;;4995867;28;20042;-85
2023/07/19 05:00:14;;;;;;;11.27;9.02;;;16.70;99.90;;;;;;4979354;28;20486;-84
2023/07/19 05:02:43;;;;;;;12.00;5.13;;;16.70;99.90;;;;;;4995634;28;20064;-84
2023/07/19 05:05:09;;;;;;;11.57;7.05;;;16.70;99.90;;;;;;4995267;28;20473;-85
2023/07/19 05:07:36;;;;;;;11.50;7.05;;;16.70;99.90;;;;;;4995174;28;20073;-85
2023/07/19 05:10:04;;;;;;;9.63;6.32;;;16.80;99.90;;;;;;4978692;28;20041;-85
2023/07/19 05:12:32;;;;;;;9.77;6.00;;;16.80;99.90;;;;;;4994683;28;20033;-84
2023/07/19 05:14:58;;;;;;;11.15;5.82;;;16.80;99.90;;;;;;4995570;28;20030;-84
2023/07/19 05:17:24;;;;;;;10.15;5.93;;;16.80;99.90;;;;;;4993841;28;20052;-84
2023/07/19 05:19:50;;;;;;;9.80;4.03;;;16.80;99.90;;;;;;4995253;28;20038;-84
2023/07/19 05:22:15;;;;;;;9.15;4.70;;;16.80;99.90;;;;;;4978904;28;20088;-84
2023/07/19 05:24:41;;;;;;;9.75;4.75;;;16.70;99.90;;;;;;4979140;28;20073;-84
2023/07/19 05:27:06;;;;;;;8.63;3.65;;;16.80;99.90;;;;;;4994059;28;20081;-84
2023/07/19 05:29:33;;;;;;;8.90;3.72;;;16.80;99.90;;;;;;4995062;28;20495;-83
2023/07/19 05:31:58;;;;;;;9.88;4.82;;;16.70;99.90;;;;;;4978480;28;20042;-84
2023/07/19 05:34:24;;;;;;;8.90;4.40;;;16.70;99.90;;;;;;4978797;28;20038;-84
2023/07/19 05:36:49;;;;;;;8.13;4.20;;;16.80;99.90;;;;;;4995112;28;20046;-84
2023/07/19 05:39:15;;;;;;;7.20;3.17;;;16.80;99.90;;;;;;4996242;28;20053;-84
2023/07/19 05:41:41;;;;;;;8.00;3.05;;;16.80;99.90;;;;;;4978919;28;20045;-84
2023/07/19 05:44:06;;;;;;;10.27;4.25;;;16.80;99.90;;;;;;4995516;28;20056;-84
2023/07/19 05:46:36;;;;;;;10.10;3.80;;;16.80;99.90;;;;;;4995128;28;20038;-84
2023/07/19 05:49:02;;;;;;;9.10;3.70;;;16.90;99.90;;;;;;4978641;28;20513;-83
2023/07/19 05:51:27;;;;;;;6.05;2.30;;;16.90;99.90;;;;;;4994906;28;20383;-83
2023/07/19 05:53:54;;;;;;;8.63;3.22;;;16.90;99.90;;;;;;4994347;28;20045;-84
2023/07/19 05:56:20;;;;;;;5.82;2.33;;;16.90;99.90;;;;;;4993828;28;20052;-84
2023/07/19 05:58:46;;;;;;;6.10;2.00;;;16.90;99.90;;;;;;4978076;28;20096;-84
2023/07/19 06:01:14;;;;;;;7.22;2.90;;;16.90;99.90;;;;;;4978266;28;20038;-84
2023/07/19 06:03:40;;;;;;;9.85;3.35;;;16.90;99.90;;;;;;4992103;28;20042;-84
2023/07/19 06:06:06;;;;;;;8.27;3.33;;;16.90;99.90;;;;;;4991237;28;20096;-84
2023/07/19 06:08:32;;;;;;;7.95;3.22;;;17.00;99.90;;;;;;4991118;28;20050;-84
2023/07/19 06:10:58;;;;;;;7.57;3.20;;;17.00;99.90;;;;;;4974516;28;20490;-84
2023/07/19 06:13:24;;;;;;;9.80;2.78;;;17.00;99.90;;;;;;4990641;28;20053;-84
2023/07/19 06:15:50;;;;;;;5.70;1.80;;;17.00;99.90;;;;;;4990940;28;20030;-84
2023/07/19 06:18:16;;;;;;;7.95;3.60;;;17.00;99.90;;;;;;4991402;28;20183;-84
2023/07/19 06:20:42;;;;;;;7.53;3.40;;;17.00;99.90;;;;;;4991276;28;20077;-84
2023/07/19 06:23:07;;;;;;;7.93;2.63;;;17.10;99.90;;;;;;4975055;28;20465;-84
2023/07/19 06:25:33;;;;;;;7.90;3.22;;;17.10;99.90;;;;;;4990333;28;20054;-84
2023/07/19 06:27:59;;;;;;;8.15;3.42;;;17.10;99.90;;;;;;4990828;28;20605;-84
2023/07/19 06:30:24;;;;;;;7.60;3.10;;;17.20;99.90;;;;;;4974582;28;20052;-85
2023/07/19 06:32:50;;;;;;;7.95;3.60;;;17.20;99.90;;;;;;4990741;28;20046;-84
2023/07/19 06:35:16;;;;;;;8.57;3.15;;;17.20;99.90;;;;;;4990814;28;20041;-84
2023/07/19 06:37:43;;;;;;;7.30;2.30;;;17.20;99.90;;;;;;5008460;28;20645;-84
2023/07/19 06:40:09;;;;;;;7.43;3.40;;;17.20;99.90;;;;;;4990774;28;20060;-84
2023/07/19 06:42:36;;;;;;;7.82;2.85;;;17.20;99.90;;;;;;4991135;28;20103;-85
2023/07/19 06:45:01;;;;;;;9.13;4.07;;;17.20;99.90;;;;;;4991970;28;20093;-84
2023/07/19 06:47:28;;;;;;;8.88;3.78;;;17.20;99.90;;;;;;4991562;28;20080;-84
2023/07/19 06:49:54;;;;;;;8.18;3.80;;;17.30;99.90;;;;;;4992861;28;20038;-84
2023/07/19 06:52:20;;;;;;;8.13;3.70;;;17.30;99.90;;;;;;4993445;28;20422;-84
2023/07/19 06:54:46;;;;;;;9.23;3.80;;;17.40;99.90;;;;;;4977141;28;20482;-84
2023/07/19 06:57:11;;;;;;;8.25;3.78;;;17.40;99.90;;;;;;4993499;28;20145;-84
2023/07/19 06:59:37;;;;;;;7.10;3.85;;;17.50;99.90;;;;;;4993814;28;20037;-84
2023/07/19 07:02:02;;;;;;;6.45;2.60;;;17.50;99.90;;;;;;4993326;28;20049;-84
2023/07/19 07:04:28;;;;;;;9.60;3.72;;;17.60;99.90;;;;;;4977281;28;20042;-84
2023/07/19 07:06:54;;;;;;;8.40;3.67;;;17.60;99.90;;;;;;5010390;28;20057;-85
2023/07/19 07:09:19;;;;;;;10.27;4.18;;;17.70;99.90;;;;;;4993607;28;20125;-85
2023/07/19 07:11:45;;;;;;;8.50;3.10;;;17.80;99.90;;;;;;4993038;28;20077;-85
2023/07/19 07:14:10;;;;;;;9.63;3.90;;;17.80;99.90;;;;;;4993288;28;20056;-85
2023/07/19 07:16:36;;;;;;;9.40;3.50;;;17.80;99.90;;;;;;4993588;28;20038;-85
2023/07/19 07:19:02;;;;;;;8.55;3.22;;;17.90;99.90;;;;;;4993888;28;20486;-85
2023/07/19 07:21:27;;;;;;;8.05;3.15;;;17.90;99.90;;;;;;4993907;28;20038;-85
2023/07/19 07:23:53;;;;;;;8.38;3.00;;;18.00;99.90;;;;;;4993771;28;20498;-84
2023/07/19 07:26:19;;;;;;;7.47;2.80;;;18.00;99.90;;;;;;4992665;28;20513;-85
2023/07/19 07:28:45;;;;;;;8.65;3.03;;;18.10;99.90;;;;;;4993385;28;20057;-84
2023/07/19 07:31:11;;;;;;;5.78;1.95;;;18.20;99.90;;;;;;4977116;28;20042;-85
2023/07/19 07:33:37;;;;;;;8.05;3.25;;;18.20;99.90;;;;;;4976772;28;20124;-85
2023/07/19 07:36:03;;;;;;;7.13;2.42;;;18.20;99.90;;;;;;4976626;28;20121;-85
2023/07/19 07:38:29;;;;;;;8.85;2.83;;;18.30;99.90;;;;;;4993304;28;20042;-85
2023/07/19 07:41:01;;;;;;;7.07;2.17;;;18.40;99.90;;;;;;4995384;28;20133;-84
2023/07/19 07:43:29;;;;;;;6.50;2.17;;;18.40;99.90;;;;;;4996845;28;20130;-84
2023/07/19 07:45:58;;;;;;;10.63;2.25;;;18.40;99.90;;;;;;4996437;28;20593;-85
2023/07/19 07:48:24;;;;;;;6.78;2.20;;;18.40;99.90;;;;;;4994328;28;20038;-84
2023/07/19 07:50:51;;;;;;;7.78;2.38;;;18.40;99.90;;;;;;4993997;28;20088;-85
2023/07/19 07:53:18;;;;;;;7.28;2.10;;;18.40;99.90;;;;;;4993593;28;20073;-85
2023/07/19 07:55:44;;;;;;;6.10;2.20;;;18.50;99.90;;;;;;4993862;28;20042;-85
2023/07/19 07:58:10;;;;;;;7.32;2.40;;;18.50;99.90;;;;;;4993934;28;20050;-85
2023/07/19 08:00:36;;;;;;;7.88;2.50;;;18.60;99.90;;;;;;4995350;28;20073;-85
2023/07/19 08:03:02;;;;;;;7.22;2.03;;;18.60;99.90;;;;;;4978767;28;20077;-85
2023/07/19 08:05:38;;;;;;;7.07;1.95;;;18.70;99.90;;;;;;4994593;28;20046;-84
2023/07/19 08:08:05;;;;;;;6.47;2.10;;;18.70;99.90;;;;;;4979905;28;20507;-85
2023/07/19 08:10:49;;;;;;;7.20;2.22;;;18.70;99.90;;;;;;4996595;28;20053;-85
2023/07/19 08:13:21;;;;;;;7.47;2.40;;;18.70;99.90;;;;;;4976278;28;20043;-85
2023/07/19 08:15:47;;;;;;;7.97;2.25;;;18.70;99.90;;;;;;4976445;28;20034;-85
2023/07/19 08:18:13;;;;;;;7.05;2.25;;;18.70;99.90;;;;;;4994578;28;20042;-85
2023/07/19 08:20:40;;;;;;;6.72;1.60;;;18.70;99.90;;;;;;4976967;28;20038;-83
2023/07/19 08:23:20;;;;;;;8.68;2.80;;;18.60;99.90;;;;;;4976820;28;20414;-85
2023/07/19 08:25:58;;;;;;;8.48;2.78;;;18.70;99.90;;;;;;4959759;28;20471;-85
2023/07/19 08:28:54;;;;;;;8.73;2.42;;;18.70;99.90;;;;;;4976466;28;20100;-86
2023/07/19 08:31:23;;;;;;;7.40;2.30;;;18.70;99.90;;;;;;4953688;28;20050;-85
2023/07/19 08:34:10;;;;;;;7.15;2.20;;;18.70;99.90;;;;;;4960201;28;20442;-85
2023/07/19 08:36:36;;;;;;;6.88;2.20;;;18.70;99.90;;;;;;4993626;28;20418;-85
2023/07/19 08:39:02;;;;;;;4.88;2.08;;;18.70;99.90;;;;;;4977761;28;20493;-84
2023/07/19 08:41:31;;;;;;;6.50;2.05;;;18.70;99.90;;;;;;4997900;28;20038;-85
2023/07/19 08:43:57;;;;;;;5.63;2.10;;;18.70;99.90;;;;;;4960272;28;20078;-85
2023/07/19 08:46:23;;;;;;;7.30;1.90;;;18.70;99.90;;;;;;4959668;28;20089;-84
2023/07/19 08:48:48;;;;;;;5.95;1.60;;;18.70;99.90;;;;;;4991410;28;20043;-85
2023/07/19 08:51:18;;;;;;;6.25;2.00;;;18.70;99.90;;;;;;4960075;28;20042;-85
2023/07/19 08:53:45;;;;;;;7.20;2.53;;;18.70;99.90;;;;;;4975631;28;20038;-85
2023/07/19 08:56:14;;;;;;;7.40;2.58;;;18.70;99.90;;;;;;4975962;28;20038;-85
2023/07/19 08:58:43;;;;;;;8.45;2.83;;;18.80;99.90;;;;;;4960316;28;20042;-85
2023/07/19 09:01:11;;;;;;;7.22;2.70;;;18.90;99.90;;;;;;4976228;28;20130;-85
2023/07/19 09:03:37;;;;;;;8.13;2.30;;;19.00;99.90;;;;;;4960457;28;20477;-85
2023/07/19 09:06:02;;;;;;;7.60;2.60;;;19.10;99.90;;;;;;4975798;28;20546;-85
2023/07/19 09:08:39;;;;;;;7.80;2.10;;;19.20;99.90;;;;;;4960066;28;20046;-84
2023/07/19 09:11:06;;;;;;;6.80;2.10;;;19.30;99.90;;;;;;4992432;28;20042;-85
2023/07/19 09:13:36;;;;;;;7.95;2.00;;;19.40;99.90;;;;;;4975245;28;20590;-85
2023/07/19 09:16:03;;;;;;;8.98;2.00;;;19.40;99.90;;;;;;4975730;28;20034;-85
2023/07/19 09:18:34;;;;;;;10.02;2.65;;;19.50;99.90;;;;;;4976070;28;20046;-86
2023/07/19 09:21:00;;;;;;;7.10;2.20;;;19.60;99.90;;;;;;4993452;28;20046;-85
2023/07/19 09:23:25;;;;;;;9.65;2.55;;;19.70;99.90;;;;;;4975941;28;20395;-85
2023/07/19 09:25:53;;;;;;;7.70;2.33;;;19.70;99.90;;;;;;4974693;28;20168;-85
2023/07/19 09:28:23;;;;;;;5.78;1.75;;;19.70;99.90;;;;;;4975580;28;20038;-85
2023/07/19 09:30:56;;;;;;;7.43;2.20;;;19.80;99.90;;;;;;4975634;28;20034;-86
2023/07/19 09:33:22;;;;;;;6.53;1.88;;;19.80;99.90;;;;;;4959235;28;20566;-85
2023/07/19 09:35:53;;;;;;;6.32;1.80;;;19.70;99.90;;;;;;4966773;28;20118;-85
2023/07/19 09:38:21;;;;;;;8.02;2.65;;;19.70;99.90;;;;;;4986109;28;20046;-85
2023/07/19 09:40:46;;;;;;;7.00;2.10;;;19.70;99.90;;;;;;4985525;28;20525;-85
2023/07/19 09:43:15;;;;;;;7.05;1.92;;;19.70;99.90;;;;;;4984611;28;20062;-85
2023/07/19 09:45:42;;;;;;;7.75;2.20;;;19.70;99.90;;;;;;4968140;28;20038;-85
2023/07/19 09:48:08;;;;;;;9.88;2.20;;;19.70;99.90;;;;;;4968804;28;20042;-85
2023/07/19 09:50:39;;;;;;;8.95;2.30;;;19.60;99.90;;;;;;4979799;28;20038;-85
2023/07/19 09:53:08;;;;;;;5.68;1.75;;;19.60;99.90;;;;;;4961859;28;20038;-85
2023/07/19 09:55:35;;;;;;;7.10;2.22;;;19.60;99.90;;;;;;4985135;28;20038;-85
2023/07/19 09:58:02;;;;;;;7.10;2.08;;;19.60;99.90;;;;;;4984372;28;20045;-85
2023/07/19 10:00:30;;;;;;;7.95;2.38;;;19.60;99.90;;;;;;4985392;28;20133;-85
2023/07/19 10:02:59;;;;;;;6.88;2.25;;;19.80;99.90;;;;;;4983201;28;20042;-85
2023/07/19 10:05:31;;;;;;;7.57;2.15;;;19.90;99.90;;;;;;4967262;28;20521;-86
2023/07/19 10:08:06;;;;;;;6.43;2.10;;;20.10;99.90;;;;;;4975513;28;20046;-86
2023/07/19 10:10:36;;;;;;;6.53;2.28;;;20.10;99.90;;;;;;4994384;28;20038;-85
2023/07/19 10:13:02;;;;;;;7.40;2.28;;;20.20;99.90;;;;;;4993989;28;20076;-86
2023/07/19 10:15:28;;;;;;;6.30;2.15;;;20.20;99.90;;;;;;4977110;28;20045;-86
2023/07/19 10:17:55;;;;;;;7.35;2.08;;;20.30;99.90;;;;;;4968281;28;20513;-85
2023/07/19 10:20:35;;;;;;;5.55;1.88;;;20.40;99.90;;;;;;4998730;28;20073;-85
2023/07/19 10:23:04;;;;;;;5.85;2.13;;;20.60;99.90;;;;;;4984580;28;20534;-86
2023/07/19 10:25:38;;;;;;;5.30;1.80;;;20.70;99.90;;;;;;4965640;28;20045;-85
2023/07/19 10:28:05;;;;;;;7.38;2.00;;;20.80;99.90;;;;;;4999463;28;20099;-86
2023/07/19 10:30:46;;;;;;;5.90;2.00;;;20.80;99.90;;;;;;4984913;28;20113;-86
2023/07/19 10:33:25;;;;;;;7.05;2.00;;;20.80;99.90;;;;;;4969201;28;20045;-86
2023/07/19 10:35:56;;;;;;;7.72;2.10;;;20.80;99.90;;;;;;4965626;28;20038;-86
2023/07/19 10:38:27;;;;;;;6.72;2.05;;;20.90;99.90;;;;;;4984342;28;20093;-86
2023/07/19 10:41:05;;;;;;;6.47;2.20;;;20.90;99.90;;;;;;4983203;28;20443;-86
2023/07/19 10:43:32;;;;;;;6.45;2.03;;;20.80;99.90;;;;;;4982807;28;20100;-86
2023/07/19 10:46:04;;;;;;;6.03;1.67;;;20.80;99.90;;;;;;4983625;28;20092;-86
2023/07/19 10:48:32;;;;;;;5.85;1.52;;;20.70;99.90;;;;;;4968278;28;20038;-86
2023/07/19 10:51:06;;;;;;;5.82;1.40;;;20.70;99.90;;;;;;4983531;28;20423;-86
2023/07/19 10:53:46;;;;;;;5.50;1.15;;;20.90;99.90;;;;;;5015028;28;20524;-86
2023/07/19 10:56:15;;;;;;;5.82;1.85;;;21.00;99.90;;;;;;5013587;28;20044;-86
2023/07/19 10:58:41;;;;;;;5.97;1.50;;;21.10;99.90;;;;;;4982714;28;20034;-86
2023/07/19 11:01:06;;;;;;;5.60;1.40;;;21.30;99.90;;;;;;4984638;28;20425;-86
2023/07/19 11:03:32;;;;;;;5.75;1.40;;;21.70;99.90;;;;;;4982950;28;20379;-86
2023/07/19 11:05:59;;;;;;;6.10;1.48;;;21.80;99.90;;;;;;4981875;28;20498;-87
2023/07/19 11:08:27;;;;;;;4.13;1.30;;;21.80;99.90;;;;;;4981513;28;20129;-87
2023/07/19 11:10:54;;;;;;;4.95;1.42;;;21.80;99.90;;;;;;4981890;28;20481;-86
2023/07/19 11:13:25;;;;;;;5.20;1.30;;;21.80;99.90;;;;;;4980515;28;20045;-86
2023/07/19 11:15:54;;;;;;;4.40;1.50;;;21.70;99.90;;;;;;4964651;28;20049;-86
2023/07/19 11:18:29;;;;;;;5.47;1.30;;;21.60;99.90;;;;;;4968419;28;20037;-86
2023/07/19 11:20:59;;;;;;;5.03;1.20;;;21.50;99.90;;;;;;4969451;28;20040;-86
2023/07/19 11:23:28;;;;;;;4.07;1.10;;;21.40;99.90;;;;;;4968914;28;20062;-86
2023/07/19 11:26:08;;;;;;;5.78;1.33;;;21.30;99.90;;;;;;4982849;28;20519;-86
2023/07/19 11:28:44;;;;;;;5.55;1.38;;;21.20;99.90;;;;;;5016261;28;20053;-86
2023/07/19 11:31:25;;;;;;;4.68;1.30;;;21.10;99.90;;;;;;4967344;28;20093;-87
2023/07/19 11:33:57;;;;;;;7.68;1.88;;;21.20;99.90;;;;;;4982607;28;20038;-86
2023/07/19 11:36:23;;;;;;;6.55;1.40;;;21.30;99.90;;;;;;4978056;28;20038;-86
2023/07/19 11:38:49;;;;;;;5.03;1.70;;;21.40;99.90;;;;;;4994294;28;20635;-86
2023/07/19 11:41:18;;;;;;;4.25;1.30;;;21.60;99.90;;;;;;4978394;28;20132;-86
2023/07/19 11:43:45;;;;;;;7.22;1.40;;;21.60;99.90;;;;;;4994032;28;20130;-86
2023/07/19 11:46:13;;;;;;;4.22;1.33;;;21.70;99.90;;;;;;4993572;28;20050;-87
2023/07/19 11:48:39;;;;;;;7.15;2.03;;;21.70;99.90;;;;;;4993979;28;20038;-87
2023/07/19 11:51:05;;;;;;;3.65;1.40;;;21.80;99.90;;;;;;4993967;28;20097;-87
2023/07/19 11:53:30;;;;;;;4.53;1.65;;;21.90;99.90;;;;;;4977716;28;20125;-87
2023/07/19 11:55:56;;;;;;;3.17;1.10;;;22.00;99.90;;;;;;4993490;28;20119;-87
2023/07/19 11:58:22;;;;;;;6.13;1.60;;;22.10;99.90;;;;;;4994257;28;20431;-87
2023/07/19 12:00:48;;;;;;;5.53;1.42;;;22.30;99.90;;;;;;4993874;28;20049;-87
2023/07/19 12:03:17;;;;;;;5.15;1.60;;;22.50;99.90;;;;;;4993913;28;20453;-87
2023/07/19 12:05:43;;;;;;;6.13;1.40;;;22.60;99.90;;;;;;4993778;28;20049;-87
2023/07/19 12:08:09;;;;;;;4.85;1.40;;;22.60;99.90;;;;;;4977410;28;20521;-87
2023/07/19 12:10:36;;;;;;;5.32;1.15;;;22.70;99.90;;;;;;4993597;28;20041;-86
2023/07/19 12:13:01;;;;;;;5.65;1.13;;;22.80;99.90;;;;;;4993630;28;20045;-87
2023/07/19 12:15:27;;;;;;;5.43;1.42;;;22.90;99.90;;;;;;4993247;28;20037;-86
2023/07/19 12:17:53;;;;;;;7.78;1.65;;;22.90;99.90;;;;;;4977470;28;20133;-86
2023/07/19 12:20:18;;;;;;;5.22;1.70;;;22.90;99.90;;;;;;4977619;28;20037;-86
2023/07/19 12:22:47;;;;;;;6.30;1.88;;;22.80;99.90;;;;;;4993317;28;20413;-86
2023/07/19 12:25:13;;;;;;;4.90;1.50;;;22.80;99.90;;;;;;4993330;28;20049;-86
2023/07/19 12:27:40;;;;;;;7.85;1.40;;;22.70;99.70;;;;;;4992295;28;20050;-86
2023/07/19 12:30:06;;;;;;;4.75;1.50;;;22.60;99.90;;;;;;4993308;28;20662;-86
2023/07/19 12:32:32;;;;;;;5.68;1.80;;;22.50;99.90;;;;;;4993363;28;20053;-86
2023/07/19 12:34:57;;;;;;;6.47;1.60;;;22.40;99.90;;;;;;4992855;28;20033;-86
2023/07/19 12:37:23;;;;;;;4.82;1.45;;;22.40;99.90;;;;;;4992774;28;20053;-86
2023/07/19 12:39:50;;;;;;;7.00;1.90;;;22.40;99.90;;;;;;4976834;28;20049;-86
2023/07/19 12:42:16;;;;;;;7.25;1.90;;;22.50;99.90;;;;;;4993216;28;20046;-86